PWSweather.com
Personal Weather Stations
Station Observations
INORDPAS37
Bondues, BonduesFR 59910

BonduesBonduesFR 59910

Lat: 50.7, Lon: 3.09

Elevation: 102

Station Type: Netatmo

http://bondues.meteoamikuze.com

High Low Average
Temperature 33.6°F0.9°C 21.6°F-5.8°C 27.8°F-2.3°C
Dew Point 13.8°F-10.1°C 4.6°F-15.2°C 9.6°F-12.4°C
Winds 7.4 mph 11.9 kmh 2.5 mph 4.0 kmh 5.0 mph E8.0 kmh E
Wind Gusts 17.4 mph28.0 kmh 7.4 mph11.9 kmh 13.0 mph20.9 kmh
Humidity 52% 42% 48%
Pressure 29.79 in1008.8 mb 29.39 in995.3 mb -
Precipitation 0.00 in0.0 mm - -
Hour Temp Dew Point Humidity Winds Wind Gusts Pressure Precip Precip Rate Daily Precip Total
12:08 AM 22.1°F-5.5°C 4.6°F-15.2°C 49% 3.8 mph ENE6.1 kmh ENE 13.0 mph20.9 kmh 29.80 in1009.1 mb 0.00 in0.0 mm 0.00 in0.0 mm 0.00 in0.0 mm
12:29 AM 22.3°F-5.4°C 4.8°F-15.1°C 49% 4.3 mph NE6.9 kmh NE 11.9 mph19.2 kmh 29.80 in1009.1 mb 0.00 in0.0 mm 0.00 in0.0 mm 0.00 in0.0 mm
12:48 AM 22.3°F-5.4°C 4.8°F-15.1°C 49% 4.9 mph E7.9 kmh E 13.0 mph20.9 kmh 29.80 in1009.1 mb 0.00 in0.0 mm 0.00 in0.0 mm 0.00 in0.0 mm
01:09 AM 21.9°F-5.6°C 4.8°F-15.1°C 50% 3.8 mph E6.1 kmh E 10.5 mph16.9 kmh 29.79 in1008.8 mb 0.00 in0.0 mm 0.00 in0.0 mm 0.00 in0.0 mm
01:35 AM 21.9°F-5.6°C 4.8°F-15.1°C 50% 4.9 mph E7.9 kmh E 15.0 mph24.1 kmh 29.78 in1008.5 mb 0.00 in0.0 mm 0.00 in0.0 mm 0.00 in0.0 mm
01:55 AM 21.7°F-5.7°C 4.6°F-15.2°C 50% 3.8 mph ENE6.1 kmh ENE 9.4 mph15.1 kmh 29.78 in1008.5 mb 0.00 in0.0 mm 0.00 in0.0 mm 0.00 in0.0 mm
02:15 AM 21.7°F-5.7°C 4.6°F-15.2°C 50% 3.8 mph E6.1 kmh E 11.9 mph19.2 kmh 29.78 in1008.5 mb 0.00 in0.0 mm 0.00 in0.0 mm 0.00 in0.0 mm
02:35 AM 21.6°F-5.8°C 4.8°F-15.1°C 51% 3.8 mph E6.1 kmh E 11.9 mph19.2 kmh 29.76 in1007.8 mb 0.00 in0.0 mm 0.00 in0.0 mm 0.00 in0.0 mm
02:55 AM 21.6°F-5.8°C 4.8°F-15.1°C 51% 4.3 mph E6.9 kmh E 10.5 mph16.9 kmh 29.76 in1007.8 mb 0.00 in0.0 mm 0.00 in0.0 mm 0.00 in0.0 mm
03:15 AM 21.7°F-5.7°C 5.0°F-15.0°C 51% 3.8 mph E6.1 kmh E 9.8 mph15.8 kmh 29.75 in1007.5 mb 0.00 in0.0 mm 0.00 in0.0 mm 0.00 in0.0 mm
03:27 AM 21.7°F-5.7°C 5.0°F-15.0°C 51% 4.9 mph ENE7.9 kmh ENE 11.9 mph19.2 kmh 29.73 in1006.8 mb 0.00 in0.0 mm 0.00 in0.0 mm 0.00 in0.0 mm
03:48 AM 21.9°F-5.6°C 5.2°F-14.9°C 51% 4.3 mph E6.9 kmh E 13.0 mph20.9 kmh 29.72 in1006.4 mb 0.00 in0.0 mm 0.00 in0.0 mm 0.00 in0.0 mm
04:07 AM 21.9°F-5.6°C 5.2°F-14.9°C 51% 4.9 mph E7.9 kmh E 13.0 mph20.9 kmh 29.70 in1005.8 mb 0.00 in0.0 mm 0.00 in0.0 mm 0.00 in0.0 mm
04:28 AM 22.1°F-5.5°C 5.4°F-14.8°C 51% 3.8 mph E6.1 kmh E 12.5 mph20.1 kmh 29.70 in1005.8 mb 0.00 in0.0 mm 0.00 in0.0 mm 0.00 in0.0 mm
04:47 AM 22.1°F-5.5°C 5.7°F-14.6°C 52% 3.8 mph E6.1 kmh E 11.9 mph19.2 kmh 29.69 in1005.4 mb 0.00 in0.0 mm 0.00 in0.0 mm 0.00 in0.0 mm
05:15 AM 22.1°F-5.5°C 5.7°F-14.6°C 52% 2.5 mph E4.0 kmh E 11.2 mph18.0 kmh 29.68 in1005.1 mb 0.00 in0.0 mm 0.00 in0.0 mm 0.00 in0.0 mm
05:35 AM 22.3°F-5.4°C 5.9°F-14.5°C 52% 3.8 mph E6.1 kmh E 11.2 mph18.0 kmh 29.68 in1005.1 mb 0.00 in0.0 mm 0.00 in0.0 mm 0.00 in0.0 mm
05:55 AM 22.3°F-5.4°C 5.9°F-14.5°C 52% 3.8 mph ENE6.1 kmh ENE 14.3 mph23.0 kmh 29.68 in1005.1 mb 0.00 in0.0 mm 0.00 in0.0 mm 0.00 in0.0 mm
06:15 AM 22.5°F-5.3°C 6.1°F-14.4°C 52% 3.1 mph E5.0 kmh E 9.8 mph15.8 kmh 29.67 in1004.7 mb 0.00 in0.0 mm 0.00 in0.0 mm 0.00 in0.0 mm
06:35 AM 22.5°F-5.3°C 6.1°F-14.4°C 52% 3.8 mph E6.1 kmh E 11.9 mph19.2 kmh 29.67 in1004.7 mb 0.00 in0.0 mm 0.00 in0.0 mm 0.00 in0.0 mm
06:55 AM 22.6°F-5.2°C 6.3°F-14.3°C 52% 3.1 mph ENE5.0 kmh ENE 7.4 mph11.9 kmh 29.66 in1004.4 mb 0.00 in0.0 mm 0.00 in0.0 mm 0.00 in0.0 mm
07:15 AM 22.8°F-5.1°C 6.4°F-14.2°C 52% 3.8 mph E6.1 kmh E 11.2 mph18.0 kmh 29.65 in1004.1 mb 0.00 in0.0 mm 0.00 in0.0 mm 0.00 in0.0 mm
07:35 AM 23.0°F-5.0°C 6.6°F-14.1°C 52% 4.3 mph E6.9 kmh E 11.2 mph18.0 kmh 29.65 in1004.1 mb 0.00 in0.0 mm 0.00 in0.0 mm 0.00 in0.0 mm
07:55 AM 23.2°F-4.9°C 6.6°F-14.1°C 52% 6.9 mph E11.1 kmh E 15.0 mph24.1 kmh 29.64 in1003.7 mb 0.00 in0.0 mm 0.00 in0.0 mm 0.00 in0.0 mm
08:01 AM 23.2°F-4.9°C 6.4°F-14.2°C 51% 4.3 mph ESE6.9 kmh ESE 14.3 mph23.0 kmh 29.64 in1003.7 mb 0.00 in0.0 mm 0.00 in0.0 mm 0.00 in0.0 mm
08:21 AM 23.4°F-4.8°C 6.4°F-14.2°C 51% 4.3 mph ESE6.9 kmh ESE 15.4 mph24.8 kmh 29.63 in1003.4 mb 0.00 in0.0 mm 0.00 in0.0 mm 0.00 in0.0 mm
08:41 AM 23.2°F-4.9°C 6.6°F-14.1°C 52% 5.6 mph E9.0 kmh E 14.3 mph23.0 kmh 29.63 in1003.4 mb 0.00 in0.0 mm 0.00 in0.0 mm 0.00 in0.0 mm
09:01 AM 23.2°F-4.9°C 6.6°F-14.1°C 52% 7.4 mph E11.9 kmh E 15.4 mph24.8 kmh 29.62 in1003.0 mb 0.00 in0.0 mm 0.00 in0.0 mm 0.00 in0.0 mm
09:21 AM 23.4°F-4.8°C 6.8°F-14.0°C 52% 5.6 mph E9.0 kmh E 11.9 mph19.2 kmh 29.62 in1003.0 mb 0.00 in0.0 mm 0.00 in0.0 mm 0.00 in0.0 mm
09:41 AM 23.7°F-4.6°C 7.2°F-13.8°C 52% 4.9 mph E7.9 kmh E 11.2 mph18.0 kmh 29.62 in1003.0 mb 0.00 in0.0 mm 0.00 in0.0 mm 0.00 in0.0 mm
10:02 AM 24.1°F-4.4°C 7.5°F-13.6°C 52% 4.9 mph E7.9 kmh E 12.5 mph20.1 kmh 29.61 in1002.7 mb 0.00 in0.0 mm 0.00 in0.0 mm 0.00 in0.0 mm
10:22 AM 24.3°F-4.3°C 7.7°F-13.5°C 52% 5.6 mph E9.0 kmh E 13.6 mph21.9 kmh 29.61 in1002.7 mb 0.00 in0.0 mm 0.00 in0.0 mm 0.00 in0.0 mm
10:42 AM 24.6°F-4.1°C 8.1°F-13.3°C 52% 5.6 mph E9.0 kmh E 14.3 mph23.0 kmh 29.60 in1002.4 mb 0.00 in0.0 mm 0.00 in0.0 mm 0.00 in0.0 mm
11:02 AM 25.2°F-3.8°C 8.6°F-13.0°C 52% 5.6 mph E9.0 kmh E 10.5 mph16.9 kmh 29.60 in1002.4 mb 0.00 in0.0 mm 0.00 in0.0 mm 0.00 in0.0 mm
11:22 AM 25.7°F-3.5°C 9.0°F-12.8°C 52% 5.6 mph E9.0 kmh E 13.6 mph21.9 kmh 29.59 in1002.0 mb 0.00 in0.0 mm 0.00 in0.0 mm 0.00 in0.0 mm
11:43 AM 26.4°F-3.1°C 9.7°F-12.4°C 52% 5.6 mph E9.0 kmh E 15.4 mph24.8 kmh 29.58 in1001.7 mb 0.00 in0.0 mm 0.00 in0.0 mm 0.00 in0.0 mm
12:02 PM 27.1°F-2.7°C 10.0°F-12.2°C 51% 3.8 mph ESE6.1 kmh ESE 11.9 mph19.2 kmh 29.58 in1001.7 mb 0.00 in0.0 mm 0.00 in0.0 mm 0.00 in0.0 mm
12:23 PM 28.0°F-2.2°C 10.9°F-11.7°C 51% 4.9 mph E7.9 kmh E 15.0 mph24.1 kmh 29.58 in1001.7 mb 0.00 in0.0 mm 0.00 in0.0 mm 0.00 in0.0 mm
12:42 PM 28.8°F-1.8°C 11.1°F-11.6°C 50% 5.6 mph E9.0 kmh E 16.8 mph27.0 kmh 29.56 in1001.0 mb 0.00 in0.0 mm 0.00 in0.0 mm 0.00 in0.0 mm
01:03 PM 29.5°F-1.4°C 11.8°F-11.2°C 50% 4.9 mph ESE7.9 kmh ESE 13.0 mph20.9 kmh 29.56 in1001.0 mb 0.00 in0.0 mm 0.00 in0.0 mm 0.00 in0.0 mm
01:23 PM 29.8°F-1.2°C 11.8°F-11.2°C 49% 5.6 mph E9.0 kmh E 16.1 mph25.9 kmh 29.55 in1000.7 mb 0.00 in0.0 mm 0.00 in0.0 mm 0.00 in0.0 mm
01:43 PM 30.4°F-0.9°C 12.4°F-10.9°C 49% 5.6 mph E9.0 kmh E 14.3 mph23.0 kmh 29.54 in1000.3 mb 0.00 in0.0 mm 0.00 in0.0 mm 0.00 in0.0 mm
02:04 PM 31.3°F-0.4°C 12.7°F-10.7°C 48% 4.3 mph E6.9 kmh E 13.6 mph21.9 kmh 29.54 in1000.3 mb 0.00 in0.0 mm 0.00 in0.0 mm 0.00 in0.0 mm
02:23 PM 31.5°F-0.3°C 12.6°F-10.8°C 47% 7.4 mph E11.9 kmh E 17.4 mph28.0 kmh 29.54 in1000.3 mb 0.00 in0.0 mm 0.00 in0.0 mm 0.00 in0.0 mm
02:55 PM 31.6°F-0.2°C 12.7°F-10.7°C 47% 4.3 mph E6.9 kmh E 12.5 mph20.1 kmh 29.52 in999.7 mb 0.00 in0.0 mm 0.00 in0.0 mm 0.00 in0.0 mm
03:01 PM 32.0°F0.0°C 13.1°F-10.5°C 47% 4.3 mph E6.9 kmh E 15.0 mph24.1 kmh 29.52 in999.7 mb 0.00 in0.0 mm 0.00 in0.0 mm 0.00 in0.0 mm
03:21 PM 32.2°F0.1°C 12.9°F-10.6°C 46% 4.9 mph E7.9 kmh E 13.0 mph20.9 kmh 29.51 in999.3 mb 0.00 in0.0 mm 0.00 in0.0 mm 0.00 in0.0 mm
03:43 PM 32.4°F0.2°C 13.1°F-10.5°C 46% 3.8 mph E6.1 kmh E 9.8 mph15.8 kmh 29.50 in999.0 mb 0.00 in0.0 mm 0.00 in0.0 mm 0.00 in0.0 mm
04:03 PM 32.4°F0.2°C 13.1°F-10.5°C 46% 4.9 mph E7.9 kmh E 13.6 mph21.9 kmh 29.50 in999.0 mb 0.00 in0.0 mm 0.00 in0.0 mm 0.00 in0.0 mm
04:24 PM 32.5°F0.3°C 13.3°F-10.4°C 46% 4.9 mph E7.9 kmh E 13.6 mph21.9 kmh 29.49 in998.6 mb 0.00 in0.0 mm 0.00 in0.0 mm 0.00 in0.0 mm
04:43 PM 33.1°F0.6°C 13.8°F-10.1°C 46% 4.3 mph E6.9 kmh E 12.5 mph20.1 kmh 29.49 in998.6 mb 0.00 in0.0 mm 0.00 in0.0 mm 0.00 in0.0 mm
05:04 PM 33.3°F0.7°C 13.6°F-10.2°C 45% 3.1 mph E5.0 kmh E 9.4 mph15.1 kmh 29.47 in998.0 mb 0.00 in0.0 mm 0.00 in0.0 mm 0.00 in0.0 mm
05:24 PM 33.4°F0.8°C 13.6°F-10.2°C 45% 4.3 mph E6.9 kmh E 14.3 mph23.0 kmh 29.48 in998.3 mb 0.00 in0.0 mm 0.00 in0.0 mm 0.00 in0.0 mm
05:45 PM 33.6°F0.9°C 13.5°F-10.3°C 44% 3.8 mph E6.1 kmh E 11.9 mph19.2 kmh 29.48 in998.3 mb 0.00 in0.0 mm 0.00 in0.0 mm 0.00 in0.0 mm
06:15 PM 33.6°F0.9°C 13.5°F-10.3°C 44% 4.3 mph E6.9 kmh E 10.5 mph16.9 kmh 29.47 in998.0 mb 0.00 in0.0 mm 0.00 in0.0 mm 0.00 in0.0 mm
06:22 PM 33.6°F0.9°C 13.5°F-10.3°C 44% 4.9 mph E7.9 kmh E 12.5 mph20.1 kmh 29.46 in997.6 mb 0.00 in0.0 mm 0.00 in0.0 mm 0.00 in0.0 mm
06:49 PM 33.6°F0.9°C 13.5°F-10.3°C 44% 3.8 mph E6.1 kmh E 16.1 mph25.9 kmh 29.47 in998.0 mb 0.00 in0.0 mm 0.00 in0.0 mm 0.00 in0.0 mm
07:09 PM 33.6°F0.9°C 13.5°F-10.3°C 44% 3.8 mph E6.1 kmh E 11.9 mph19.2 kmh 29.47 in998.0 mb 0.00 in0.0 mm 0.00 in0.0 mm 0.00 in0.0 mm
07:29 PM 33.6°F0.9°C 13.1°F-10.5°C 43% 4.9 mph E7.9 kmh E 13.0 mph20.9 kmh 29.47 in998.0 mb 0.00 in0.0 mm 0.00 in0.0 mm 0.00 in0.0 mm
07:55 PM 33.6°F0.9°C 13.5°F-10.3°C 44% 3.8 mph E6.1 kmh E 9.4 mph15.1 kmh 29.45 in997.3 mb 0.00 in0.0 mm 0.00 in0.0 mm 0.00 in0.0 mm
08:15 PM 33.4°F0.8°C 12.9°F-10.6°C 43% 4.3 mph E6.9 kmh E 13.0 mph20.9 kmh 29.45 in997.3 mb 0.00 in0.0 mm 0.00 in0.0 mm 0.00 in0.0 mm
08:35 PM 33.4°F0.8°C 12.9°F-10.6°C 43% 4.3 mph E6.9 kmh E 16.8 mph27.0 kmh 29.44 in997.0 mb 0.00 in0.0 mm 0.00 in0.0 mm 0.00 in0.0 mm
08:43 PM 33.3°F0.7°C 12.9°F-10.6°C 43% 4.3 mph E6.9 kmh E 10.5 mph16.9 kmh 29.44 in997.0 mb 0.00 in0.0 mm 0.00 in0.0 mm 0.00 in0.0 mm
09:07 PM 33.4°F0.8°C 12.9°F-10.6°C 43% 6.9 mph E11.1 kmh E 13.6 mph21.9 kmh 29.45 in997.3 mb 0.00 in0.0 mm 0.00 in0.0 mm 0.00 in0.0 mm
09:22 PM 33.4°F0.8°C 12.6°F-10.8°C 42% 7.4 mph E11.9 kmh E 16.8 mph27.0 kmh 29.45 in997.3 mb 0.00 in0.0 mm 0.00 in0.0 mm 0.00 in0.0 mm
09:42 PM 33.3°F0.7°C 12.6°F-10.8°C 42% 4.9 mph E7.9 kmh E 12.5 mph20.1 kmh 29.44 in997.0 mb 0.00 in0.0 mm 0.00 in0.0 mm 0.00 in0.0 mm
10:02 PM 33.3°F0.7°C 12.6°F-10.8°C 42% 4.9 mph E7.9 kmh E 15.0 mph24.1 kmh 29.43 in996.6 mb 0.00 in0.0 mm 0.00 in0.0 mm 0.00 in0.0 mm
10:29 PM 32.9°F0.5°C 12.6°F-10.8°C 43% 4.3 mph E6.9 kmh E 10.5 mph16.9 kmh 29.42 in996.3 mb 0.00 in0.0 mm 0.00 in0.0 mm 0.00 in0.0 mm
10:55 PM 32.9°F0.5°C 12.6°F-10.8°C 43% 4.3 mph E6.9 kmh E 15.4 mph24.8 kmh 29.41 in995.9 mb 0.00 in0.0 mm 0.00 in0.0 mm 0.00 in0.0 mm
11:15 PM 32.7°F0.4°C 12.4°F-10.9°C 43% 5.6 mph E9.0 kmh E 14.3 mph23.0 kmh 29.40 in995.6 mb 0.00 in0.0 mm 0.00 in0.0 mm 0.00 in0.0 mm
11:35 PM 32.5°F0.3°C 12.2°F-11.0°C 43% 5.6 mph E9.0 kmh E 16.1 mph25.9 kmh 29.39 in995.3 mb 0.00 in0.0 mm 0.00 in0.0 mm 0.00 in0.0 mm
11:55 PM 32.5°F0.3°C 12.2°F-11.0°C 43% 4.3 mph E6.9 kmh E 13.0 mph20.9 kmh 29.39 in995.3 mb 0.00 in0.0 mm 0.00 in0.0 mm 0.00 in0.0 mm